createdAt,value
2017-11-03T00:00:39.839Z,941.9
2017-11-03T00:01:47.966Z,942.0
2017-11-03T00:02:56.013Z,941.9
2017-11-03T00:04:04.159Z,941.9
2017-11-03T00:05:12.378Z,942.0
2017-11-03T00:06:20.280Z,941.9
2017-11-03T00:07:28.363Z,941.9
2017-11-03T00:08:36.447Z,941.9
2017-11-03T00:09:44.780Z,941.9
2017-11-03T00:10:52.623Z,941.9
2017-11-03T00:12:00.713Z,941.9
2017-11-03T00:13:08.799Z,941.8
2017-11-03T00:14:16.883Z,941.8
2017-11-03T00:15:25.026Z,941.9
2017-11-03T00:16:33.073Z,941.9
2017-11-03T00:17:41.153Z,941.9
2017-11-03T00:18:49.387Z,941.9
2017-11-03T00:19:57.332Z,941.9
2017-11-03T00:21:05.482Z,941.9
2017-11-03T00:22:13.515Z,942.0
2017-11-03T00:23:21.752Z,941.9
2017-11-03T00:24:29.690Z,941.9
2017-11-03T00:25:37.786Z,941.9
2017-11-03T00:26:45.983Z,941.9
2017-11-03T00:27:53.950Z,941.9
2017-11-03T00:29:02.034Z,941.9
2017-11-03T00:30:10.126Z,941.9
2017-11-03T00:31:18.280Z,941.9
2017-11-03T00:32:26.580Z,941.9
2017-11-03T00:33:34.490Z,941.9
2017-11-03T00:34:42.472Z,941.9
2017-11-03T00:35:50.566Z,941.8
2017-11-03T00:36:58.647Z,941.8
2017-11-03T00:38:06.790Z,941.9
2017-11-03T00:39:14.821Z,941.9
2017-11-03T00:40:22.907Z,941.9
2017-11-03T00:41:31.139Z,941.9
2017-11-03T00:42:39.081Z,941.9
2017-11-03T00:43:47.225Z,941.9
2017-11-03T00:44:55.257Z,941.9
2017-11-03T00:46:03.341Z,941.9
2017-11-03T00:47:11.620Z,941.9
2017-11-03T00:48:19.525Z,942.0
2017-11-03T00:49:27.668Z,942.0
2017-11-03T00:50:35.701Z,942.0
2017-11-03T00:51:43.787Z,942.0
2017-11-03T00:52:51.874Z,942.0
2017-11-03T00:53:59.963Z,941.9
2017-11-03T00:55:08.105Z,941.9
2017-11-03T00:56:16.314Z,941.9
2017-11-03T00:57:24.226Z,941.9
2017-11-03T00:58:32.309Z,941.9
2017-11-03T00:59:40.395Z,941.9
2017-11-03T01:00:48.688Z,941.9
2017-11-03T01:01:56.570Z,941.9
2017-11-03T01:03:04.776Z,941.9
2017-11-03T01:04:12.753Z,941.8
2017-11-03T01:05:20.830Z,941.8
2017-11-03T01:06:29.043Z,941.8
2017-11-03T01:07:37.006Z,941.9
2017-11-03T01:08:45.093Z,941.8
2017-11-03T01:09:53.224Z,941.8
2017-11-03T01:11:01.267Z,941.9
2017-11-03T01:12:09.419Z,941.8
2017-11-03T01:13:17.460Z,941.8
2017-11-03T01:14:25.620Z,941.8
2017-11-03T01:15:33.627Z,941.8
2017-11-03T01:16:41.713Z,941.8
2017-11-03T01:17:49.863Z,941.8
2017-11-03T01:18:58.008Z,941.7
2017-11-03T01:20:05.987Z,941.8
2017-11-03T01:21:14.073Z,941.8
2017-11-03T01:22:22.165Z,941.8
2017-11-03T01:23:30.516Z,941.8
2017-11-03T01:24:38.425Z,941.8
2017-11-03T01:25:46.430Z,941.8
2017-11-03T01:26:54.520Z,941.7
2017-11-03T01:28:02.746Z,941.7
2017-11-03T01:29:10.751Z,941.7
2017-11-03T01:30:18.796Z,941.7
2017-11-03T01:31:26.878Z,941.7
2017-11-03T01:32:35.076Z,941.7
2017-11-03T01:33:43.050Z,941.7
2017-11-03T01:34:51.261Z,941.7
2017-11-03T01:35:59.229Z,941.7
2017-11-03T01:37:07.311Z,941.7
2017-11-03T01:38:15.441Z,941.7
2017-11-03T01:39:23.483Z,941.7
2017-11-03T01:40:31.628Z,941.7
2017-11-03T01:41:39.678Z,941.7
2017-11-03T01:42:47.755Z,941.8
2017-11-03T01:43:55.847Z,941.7
2017-11-03T01:45:03.930Z,941.8
2017-11-03T01:46:12.326Z,941.7
2017-11-03T01:47:20.104Z,941.8
2017-11-03T01:48:28.788Z,941.7
2017-11-03T01:49:36.859Z,941.7
2017-11-03T01:50:44.997Z,941.8
2017-11-03T01:51:53.082Z,941.7
2017-11-03T01:53:01.114Z,941.7
2017-11-03T01:54:09.204Z,941.7
2017-11-03T01:55:17.291Z,941.7
2017-11-03T01:56:25.376Z,941.6
2017-11-03T01:57:33.643Z,941.7
2017-11-03T01:58:41.548Z,941.6
2017-11-03T01:59:49.635Z,941.6
2017-11-03T02:00:57.722Z,941.6
2017-11-03T02:02:05.826Z,941.7
2017-11-03T02:03:13.955Z,941.6
2017-11-03T02:04:21.983Z,941.6
2017-11-03T02:05:30.069Z,941.6
2017-11-03T02:06:38.214Z,941.6
2017-11-03T02:07:46.306Z,941.6
2017-11-03T02:08:54.386Z,941.5
2017-11-03T02:10:02.417Z,941.6
2017-11-03T02:11:10.708Z,941.6
2017-11-03T02:12:18.647Z,941.6
2017-11-03T02:13:26.685Z,941.6
2017-11-03T02:14:34.891Z,941.6
2017-11-03T02:15:42.858Z,941.6
2017-11-03T02:16:50.947Z,941.5
2017-11-03T02:17:59.034Z,941.5
2017-11-03T02:19:07.126Z,941.6
2017-11-03T02:20:15.355Z,941.6
2017-11-03T02:21:23.336Z,941.6
2017-11-03T02:22:31.498Z,941.6
2017-11-03T02:23:39.472Z,941.6
2017-11-03T02:24:47.553Z,941.6
2017-11-03T02:25:55.718Z,941.6
2017-11-03T02:27:03.729Z,941.6
2017-11-03T02:28:11.816Z,941.6
2017-11-03T02:29:19.902Z,941.6
2017-11-03T02:30:27.985Z,941.6
2017-11-03T02:31:36.127Z,941.5
2017-11-03T02:32:44.164Z,941.6
2017-11-03T02:33:52.264Z,941.5
2017-11-03T02:35:00.355Z,941.5
2017-11-03T02:36:08.425Z,941.6
2017-11-03T02:37:16.632Z,941.5
2017-11-03T02:38:24.719Z,941.5
2017-11-03T02:39:32.809Z,941.6
2017-11-03T02:40:40.773Z,941.5
2017-11-03T02:41:48.863Z,941.6
2017-11-03T02:42:57.008Z,941.6
2017-11-03T02:44:05.036Z,941.6
2017-11-03T02:45:13.124Z,941.6
2017-11-03T02:46:21.211Z,941.7
2017-11-03T02:47:29.296Z,941.6
2017-11-03T02:48:37.627Z,941.6
2017-11-03T02:49:45.539Z,941.6
2017-11-03T02:50:53.562Z,941.7
2017-11-03T02:52:01.640Z,941.7
2017-11-03T02:53:09.731Z,941.7
2017-11-03T02:54:17.871Z,941.7
2017-11-03T02:55:25.900Z,941.7
2017-11-03T02:56:33.993Z,941.7
2017-11-03T02:57:42.081Z,941.7
2017-11-03T02:58:50.235Z,941.7
2017-11-03T02:59:58.303Z,941.8
2017-11-03T03:01:06.335Z,941.8
2017-11-03T03:02:14.621Z,941.8
2017-11-03T03:03:22.507Z,941.8
2017-11-03T03:04:30.597Z,941.8
2017-11-03T03:05:38.737Z,941.8
2017-11-03T03:06:46.768Z,941.8
2017-11-03T03:07:54.855Z,941.8
2017-11-03T03:09:02.943Z,941.8
2017-11-03T03:10:11.148Z,941.8
2017-11-03T03:11:19.172Z,941.9
2017-11-03T03:12:27.203Z,941.9
2017-11-03T03:13:35.290Z,941.8
2017-11-03T03:14:43.376Z,941.9
2017-11-03T03:15:51.464Z,941.9
2017-11-03T03:16:59.708Z,941.9
2017-11-03T03:18:07.638Z,941.9
2017-11-03T03:19:15.724Z,941.9
2017-11-03T03:20:23.910Z,941.9
2017-11-03T03:21:31.972Z,941.9
2017-11-03T03:22:40.108Z,941.9
2017-11-03T03:23:48.137Z,941.8
2017-11-03T03:24:56.231Z,941.9
2017-11-03T03:26:04.433Z,941.9
2017-11-03T03:27:12.400Z,941.9
2017-11-03T03:28:20.543Z,941.9
2017-11-03T03:29:28.574Z,941.9
2017-11-03T03:30:36.662Z,941.9
2017-11-03T03:31:44.746Z,941.9
2017-11-03T03:32:52.832Z,941.9
2017-11-03T03:34:00.977Z,941.9
2017-11-03T03:35:09.017Z,941.9
2017-11-03T03:36:17.092Z,941.9
2017-11-03T03:37:25.180Z,941.9
2017-11-03T03:38:33.269Z,941.9
2017-11-03T03:39:41.559Z,941.9
2017-11-03T03:40:49.477Z,941.9
2017-11-03T03:41:57.590Z,941.9
2017-11-03T03:43:05.630Z,941.9
2017-11-03T03:44:13.723Z,941.9
2017-11-03T03:45:21.924Z,942.0
2017-11-03T03:46:29.892Z,942.0
2017-11-03T03:47:37.977Z,942.0
2017-11-03T03:48:46.077Z,942.0
2017-11-03T03:49:55.065Z,942.0
2017-11-03T03:51:03.030Z,942.0
2017-11-03T03:52:11.059Z,942.0
2017-11-03T03:53:19.154Z,942.0
2017-11-03T03:54:27.411Z,942.0
2017-11-03T03:55:35.326Z,942.0
2017-11-03T03:56:43.533Z,942.0
2017-11-03T03:57:51.559Z,942.0
2017-11-03T03:58:59.753Z,942.0
2017-11-03T04:00:07.674Z,942.0
2017-11-03T04:01:15.763Z,942.0
2017-11-03T04:02:23.906Z,942.0
2017-11-03T04:03:31.936Z,942.0
2017-11-03T04:04:40.023Z,942.0
2017-11-03T04:05:48.124Z,942.0
2017-11-03T04:06:56.198Z,942.0
2017-11-03T04:08:04.341Z,942.0
2017-11-03T04:09:12.380Z,942.0
2017-11-03T04:10:20.461Z,942.0
2017-11-03T04:11:28.554Z,942.0
2017-11-03T04:12:36.637Z,942.0
2017-11-03T04:13:44.777Z,942.0
2017-11-03T04:14:52.810Z,942.0
2017-11-03T04:16:00.898Z,942.0
2017-11-03T04:17:08.987Z,942.0
2017-11-03T04:18:17.212Z,942.0
2017-11-03T04:19:25.279Z,942.0
2017-11-03T04:20:33.245Z,942.0
2017-11-03T04:21:41.330Z,942.0
2017-11-03T04:22:49.416Z,942.0
2017-11-03T04:23:57.506Z,942.0
2017-11-03T04:25:05.665Z,942.0
2017-11-03T04:26:13.689Z,942.0
2017-11-03T04:27:21.777Z,942.0
2017-11-03T04:28:29.862Z,942.0
2017-11-03T04:29:38.004Z,942.0
2017-11-03T04:30:46.273Z,942.0
2017-11-03T04:31:54.239Z,942.0
2017-11-03T04:33:02.206Z,941.9
2017-11-03T04:34:10.306Z,941.9
2017-11-03T04:35:18.569Z,941.9
2017-11-03T04:36:26.633Z,941.9
2017-11-03T04:37:34.562Z,941.9
2017-11-03T04:38:42.651Z,941.9
2017-11-03T04:39:50.741Z,941.9
2017-11-03T04:40:58.828Z,941.9
2017-11-03T04:42:06.973Z,941.9
2017-11-03T04:43:15.003Z,941.9
2017-11-03T04:44:23.090Z,941.8
2017-11-03T04:45:31.335Z,941.8
2017-11-03T04:46:39.261Z,941.9
2017-11-03T04:47:47.404Z,941.9
2017-11-03T04:48:55.436Z,941.9
2017-11-03T04:50:03.630Z,941.9
2017-11-03T04:51:11.612Z,941.9
2017-11-03T04:52:19.693Z,941.9
2017-11-03T04:53:27.838Z,941.9
2017-11-03T04:54:35.868Z,941.9
2017-11-03T04:55:43.959Z,941.9
2017-11-03T04:56:52.040Z,941.9
2017-11-03T04:58:00.129Z,941.9
2017-11-03T04:59:08.336Z,941.9
2017-11-03T05:00:16.304Z,941.9
2017-11-03T05:01:24.445Z,941.8
2017-11-03T05:02:32.476Z,941.8
2017-11-03T05:03:40.756Z,941.9
2017-11-03T05:04:48.704Z,941.9
2017-11-03T05:05:56.737Z,941.9
2017-11-03T05:07:04.839Z,941.9
2017-11-03T05:08:12.909Z,941.9
2017-11-03T05:09:20.994Z,941.9
2017-11-03T05:10:29.203Z,941.9
2017-11-03T05:11:37.310Z,941.9
2017-11-03T05:12:45.392Z,941.9
2017-11-03T05:13:53.399Z,941.9
2017-11-03T05:15:01.426Z,941.9
2017-11-03T05:16:09.571Z,941.8
2017-11-03T05:17:17.661Z,941.9
2017-11-03T05:18:25.691Z,941.9
2017-11-03T05:19:33.876Z,942.0
2017-11-03T05:20:41.864Z,942.0
2017-11-03T05:21:50.159Z,941.9
2017-11-03T05:22:58.120Z,941.9
2017-11-03T05:24:06.132Z,941.9
2017-11-03T05:25:14.219Z,941.9
2017-11-03T05:26:22.308Z,941.9
2017-11-03T05:27:30.621Z,941.9
2017-11-03T05:28:38.492Z,941.9
2017-11-03T05:29:46.579Z,941.9
2017-11-03T05:30:54.659Z,941.9
2017-11-03T05:32:02.746Z,941.9
2017-11-03T05:33:10.886Z,941.9
2017-11-03T05:34:18.916Z,941.9
2017-11-03T05:35:27.002Z,941.8
2017-11-03T05:36:35.256Z,941.8
2017-11-03T05:37:44.475Z,941.8
2017-11-03T05:38:52.635Z,941.8
2017-11-03T05:40:00.648Z,941.8
2017-11-03T05:41:09.270Z,941.8
2017-11-03T05:42:17.469Z,941.8
2017-11-03T05:43:25.429Z,941.8
2017-11-03T05:44:33.243Z,941.9
2017-11-03T05:45:41.087Z,941.8
2017-11-03T05:46:49.168Z,941.9
2017-11-03T05:47:57.256Z,941.8
2017-11-03T05:49:06.874Z,941.9
2017-11-03T05:50:14.958Z,941.9
2017-11-03T05:51:23.484Z,941.9
2017-11-03T05:52:31.260Z,941.8
2017-11-03T05:53:39.160Z,941.9
2017-11-03T05:54:47.271Z,941.8
2017-11-03T05:55:55.710Z,941.8
2017-11-03T05:57:03.442Z,941.8
2017-11-03T05:58:11.530Z,941.8
2017-11-03T05:59:19.620Z,941.8
2017-11-03T06:00:27.709Z,941.8
2017-11-03T06:01:36.016Z,941.8
2017-11-03T06:02:43.882Z,941.7
2017-11-03T06:03:51.968Z,941.7
2017-11-03T06:05:00.122Z,941.7
2017-11-03T06:06:08.329Z,941.7
2017-11-03T06:07:16.282Z,941.7
2017-11-03T06:08:24.314Z,941.8
2017-11-03T06:09:32.397Z,941.8
2017-11-03T06:10:40.681Z,941.8
2017-11-03T06:11:48.583Z,941.8
2017-11-03T06:12:56.724Z,941.8
2017-11-03T06:14:04.762Z,941.8
2017-11-03T06:15:12.841Z,941.8
2017-11-03T06:16:21.000Z,941.8
2017-11-03T06:17:29.085Z,941.8
2017-11-03T06:18:37.311Z,941.8
2017-11-03T06:19:45.263Z,941.8
2017-11-03T06:20:53.411Z,941.8
2017-11-03T06:22:01.435Z,941.9
2017-11-03T06:23:09.531Z,941.8
2017-11-03T06:24:17.670Z,941.9
2017-11-03T06:25:25.859Z,941.9
2017-11-03T06:26:33.779Z,941.9
2017-11-03T06:27:41.867Z,941.9
2017-11-03T06:28:50.078Z,941.9
2017-11-03T06:29:58.143Z,941.9
2017-11-03T06:31:06.127Z,941.9
2017-11-03T06:32:14.214Z,941.9
2017-11-03T06:33:22.300Z,942.0
2017-11-03T06:34:30.447Z,942.0
2017-11-03T06:35:38.529Z,942.0
2017-11-03T06:36:46.616Z,942.0
2017-11-03T06:37:54.780Z,941.9
2017-11-03T06:39:02.786Z,942.0
2017-11-03T06:40:10.816Z,942.0
2017-11-03T06:41:19.026Z,942.0
2017-11-03T06:42:26.991Z,942.0
2017-11-03T06:43:35.145Z,942.0
2017-11-03T06:44:43.179Z,942.0
2017-11-03T06:45:51.267Z,942.0
2017-11-03T06:46:59.410Z,942.1
2017-11-03T06:48:07.503Z,942.0
2017-11-03T06:49:15.527Z,942.0
2017-11-03T06:50:23.612Z,942.1
2017-11-03T06:51:31.702Z,942.1
2017-11-03T06:52:39.839Z,942.1
2017-11-03T06:53:47.880Z,942.1
2017-11-03T06:54:55.966Z,942.1
2017-11-03T06:56:04.051Z,942.1
2017-11-03T06:57:12.142Z,942.1
2017-11-03T06:58:20.282Z,942.1
2017-11-03T06:59:28.316Z,942.1
2017-11-03T07:00:36.397Z,942.1
2017-11-03T07:01:44.621Z,942.1
2017-11-03T07:02:52.567Z,942.1
2017-11-03T07:04:00.712Z,942.1
2017-11-03T07:05:08.747Z,942.0
2017-11-03T07:06:16.830Z,942.1
2017-11-03T07:07:24.917Z,942.1
2017-11-03T07:08:33.058Z,942.1
2017-11-03T07:09:41.352Z,942.1
2017-11-03T07:10:49.219Z,942.1
2017-11-03T07:11:57.261Z,942.1
2017-11-03T07:13:05.348Z,942.1
2017-11-03T07:14:13.437Z,942.1
2017-11-03T07:15:21.636Z,942.1
2017-11-03T07:16:29.621Z,942.1
2017-11-03T07:17:37.693Z,942.1
2017-11-03T07:18:45.781Z,942.1
2017-11-03T07:19:54.048Z,942.1
2017-11-03T07:21:02.116Z,942.1
2017-11-03T07:22:10.038Z,942.1
2017-11-03T07:23:18.127Z,942.1
2017-11-03T07:24:26.352Z,942.2
2017-11-03T07:25:34.341Z,942.2
2017-11-03T07:26:42.386Z,942.2
2017-11-03T07:27:50.474Z,942.2
2017-11-03T07:28:58.561Z,942.1
2017-11-03T07:30:06.649Z,942.2
2017-11-03T07:31:14.787Z,942.2
2017-11-03T07:32:22.823Z,942.2
2017-11-03T07:33:30.908Z,942.2
2017-11-03T07:34:38.991Z,942.2
2017-11-03T07:35:47.155Z,942.2
2017-11-03T07:36:55.225Z,942.1
2017-11-03T07:38:03.255Z,942.1
2017-11-03T07:39:11.339Z,942.1
2017-11-03T07:40:19.482Z,942.1
2017-11-03T07:41:27.510Z,942.1
2017-11-03T07:42:35.653Z,942.1
2017-11-03T07:43:43.685Z,942.1
2017-11-03T07:44:51.771Z,942.1
2017-11-03T07:45:59.858Z,942.1
2017-11-03T07:47:07.945Z,942.1
2017-11-03T07:48:16.298Z,942.1
2017-11-03T07:49:24.118Z,942.1
2017-11-03T07:50:32.211Z,942.1
2017-11-03T07:51:40.292Z,942.1
2017-11-03T07:52:48.375Z,942.1
2017-11-03T07:53:56.522Z,942.1
2017-11-03T07:55:04.551Z,942.1
2017-11-03T07:56:12.694Z,942.1
2017-11-03T07:57:20.839Z,942.0
2017-11-03T07:58:28.812Z,942.0
2017-11-03T07:59:36.960Z,942.1
2017-11-03T08:00:45.008Z,942.1
2017-11-03T08:01:53.092Z,942.0
2017-11-03T08:03:01.167Z,942.0
2017-11-03T08:04:09.254Z,942.0
2017-11-03T08:05:17.398Z,942.0
2017-11-03T08:06:25.615Z,942.0
2017-11-03T08:07:33.519Z,942.0
2017-11-03T08:08:41.603Z,942.0
2017-11-03T08:09:49.683Z,942.0
2017-11-03T08:10:57.844Z,942.0
2017-11-03T08:12:05.916Z,942.1
2017-11-03T08:13:13.946Z,942.1
2017-11-03T08:14:22.035Z,942.1
2017-11-03T08:15:30.122Z,942.1
2017-11-03T08:16:38.265Z,942.1
2017-11-03T08:17:46.293Z,942.1
2017-11-03T08:18:54.380Z,942.1
2017-11-03T08:20:02.569Z,942.1
2017-11-03T08:21:10.807Z,942.1
2017-11-03T08:22:18.798Z,942.1
2017-11-03T08:23:26.826Z,942.1
2017-11-03T08:24:34.912Z,942.1
2017-11-03T08:25:42.999Z,942.1
2017-11-03T08:26:51.085Z,942.0
2017-11-03T08:27:59.230Z,942.0
2017-11-03T08:29:07.267Z,942.0
2017-11-03T08:30:15.346Z,942.0
2017-11-03T08:31:23.434Z,942.0
2017-11-03T08:32:31.519Z,942.0
2017-11-03T08:33:39.849Z,942.0
2017-11-03T08:34:47.695Z,941.9
2017-11-03T08:35:55.782Z,941.9
2017-11-03T08:37:03.873Z,941.9
2017-11-03T08:38:11.952Z,941.9
2017-11-03T08:39:20.099Z,941.9
2017-11-03T08:40:28.127Z,941.9
2017-11-03T08:41:36.214Z,941.9
2017-11-03T08:42:44.303Z,941.9
2017-11-03T08:43:52.443Z,941.9
2017-11-03T08:45:00.526Z,941.8
2017-11-03T08:46:08.559Z,941.8
2017-11-03T08:47:16.839Z,941.8
2017-11-03T08:48:24.733Z,941.8
2017-11-03T08:49:32.821Z,941.8
2017-11-03T08:50:40.964Z,941.8
2017-11-03T08:51:48.996Z,941.8
2017-11-03T08:52:57.082Z,941.8
2017-11-03T08:54:05.260Z,941.8
2017-11-03T08:55:13.255Z,941.8
2017-11-03T08:56:21.397Z,941.8
2017-11-03T08:57:29.455Z,941.8
2017-11-03T08:58:37.516Z,941.8
2017-11-03T08:59:45.664Z,941.8
2017-11-03T09:00:53.688Z,941.8
2017-11-03T09:02:01.867Z,941.8
2017-11-03T09:03:09.862Z,941.8
2017-11-03T09:04:17.951Z,941.8
2017-11-03T09:05:26.036Z,941.8
2017-11-03T09:06:34.122Z,941.8
2017-11-03T09:07:42.270Z,941.8
2017-11-03T09:08:50.303Z,941.8
2017-11-03T09:09:58.558Z,941.8
2017-11-03T09:11:06.567Z,941.8
2017-11-03T09:12:14.614Z,941.8
2017-11-03T09:13:22.697Z,941.8
2017-11-03T09:14:30.728Z,941.8
2017-11-03T09:15:38.882Z,941.8
2017-11-03T09:16:46.901Z,941.8
2017-11-03T09:17:54.989Z,941.7
2017-11-03T09:19:03.134Z,941.7
2017-11-03T09:20:11.273Z,941.7
2017-11-03T09:21:19.251Z,941.7
2017-11-03T09:22:27.338Z,941.8
2017-11-03T09:23:35.422Z,941.8
2017-11-03T09:24:43.687Z,941.8
2017-11-03T09:25:51.594Z,941.8
2017-11-03T09:26:59.682Z,941.7
2017-11-03T09:28:07.769Z,941.8
2017-11-03T09:29:15.862Z,941.8
2017-11-03T09:30:24.031Z,941.8
2017-11-03T09:31:32.093Z,941.8
2017-11-03T09:32:40.124Z,941.7
2017-11-03T09:33:48.350Z,941.8
2017-11-03T09:34:56.477Z,941.8
2017-11-03T09:36:04.534Z,941.8
2017-11-03T09:37:12.497Z,941.8
2017-11-03T09:38:20.582Z,941.8
2017-11-03T09:39:28.672Z,941.9
2017-11-03T09:40:36.758Z,941.8
2017-11-03T09:41:44.900Z,941.9
2017-11-03T09:42:52.944Z,941.9
2017-11-03T09:44:01.097Z,941.9
2017-11-03T09:45:09.116Z,941.9
2017-11-03T09:46:17.205Z,941.9
2017-11-03T09:47:25.351Z,941.9
2017-11-03T09:48:33.544Z,941.9
2017-11-03T09:49:41.470Z,941.8
2017-11-03T09:50:49.554Z,941.9
2017-11-03T09:51:57.642Z,941.8
2017-11-03T09:53:05.991Z,941.8
2017-11-03T09:54:13.814Z,941.8
2017-11-03T09:55:21.903Z,941.8
2017-11-03T09:56:30.100Z,941.8
2017-11-03T09:57:38.076Z,941.8
2017-11-03T09:58:46.218Z,941.8
2017-11-03T09:59:54.255Z,941.8
2017-11-03T10:01:02.341Z,941.8
2017-11-03T10:02:10.469Z,941.8
2017-11-03T10:03:18.573Z,941.8
2017-11-03T10:04:26.658Z,941.7
2017-11-03T10:05:34.688Z,941.7
2017-11-03T10:06:42.772Z,941.7
2017-11-03T10:07:50.860Z,941.8
2017-11-03T10:08:58.945Z,941.7
2017-11-03T10:10:07.126Z,941.7
2017-11-03T10:11:15.170Z,941.7
2017-11-03T10:12:23.205Z,941.7
2017-11-03T10:13:31.291Z,941.7
2017-11-03T10:14:39.379Z,941.6
2017-11-03T10:15:47.694Z,941.6
2017-11-03T10:16:55.559Z,941.6
2017-11-03T10:18:03.646Z,941.6
2017-11-03T10:19:11.787Z,941.6
2017-11-03T10:20:19.818Z,941.6
2017-11-03T10:21:28.032Z,941.6
2017-11-03T10:22:35.992Z,941.5
2017-11-03T10:23:44.081Z,941.5
2017-11-03T10:24:52.310Z,941.5
2017-11-03T10:26:00.253Z,941.6
2017-11-03T10:27:08.396Z,941.5
2017-11-03T10:28:16.426Z,941.5
2017-11-03T10:29:24.513Z,941.5
2017-11-03T10:30:32.684Z,941.5
2017-11-03T10:31:40.684Z,941.5
2017-11-03T10:32:48.831Z,941.5
2017-11-03T10:33:56.858Z,941.5
2017-11-03T10:35:05.003Z,941.5
2017-11-03T10:36:13.032Z,941.5
2017-11-03T10:37:21.120Z,941.5
2017-11-03T10:38:29.260Z,941.4
2017-11-03T10:39:37.295Z,941.5
2017-11-03T10:40:45.378Z,941.5
2017-11-03T10:41:53.465Z,941.4
2017-11-03T10:43:01.552Z,941.5
2017-11-03T10:44:09.703Z,941.5
2017-11-03T10:45:17.724Z,941.4
2017-11-03T10:46:25.814Z,941.4
2017-11-03T10:47:33.900Z,941.4
2017-11-03T10:48:41.985Z,941.4
2017-11-03T10:49:50.129Z,941.4
2017-11-03T10:50:58.286Z,941.4
2017-11-03T10:52:06.269Z,941.4
2017-11-03T10:53:14.453Z,941.4
2017-11-03T10:54:22.436Z,941.4
2017-11-03T10:55:30.584Z,941.4
2017-11-03T10:56:38.656Z,941.3
2017-11-03T10:57:46.701Z,941.4
2017-11-03T10:58:54.782Z,941.4
2017-11-03T11:00:02.893Z,941.3
2017-11-03T11:01:11.022Z,941.3
2017-11-03T11:02:19.133Z,941.3
2017-11-03T11:03:27.135Z,941.3
2017-11-03T11:04:35.224Z,941.3
2017-11-03T11:05:43.310Z,941.3
2017-11-03T11:06:51.655Z,941.3
2017-11-03T11:07:59.624Z,941.2
2017-11-03T11:09:07.715Z,941.2
2017-11-03T11:10:15.794Z,941.2
2017-11-03T11:11:23.889Z,941.2
2017-11-03T11:12:32.024Z,941.2
2017-11-03T11:13:40.057Z,941.2
2017-11-03T11:14:48.333Z,941.2
2017-11-03T11:15:56.235Z,941.2
2017-11-03T11:17:04.318Z,941.2
2017-11-03T11:18:12.602Z,941.2
2017-11-03T11:19:20.665Z,941.2
2017-11-03T11:20:28.719Z,941.2
2017-11-03T11:21:36.808Z,941.2
2017-11-03T11:22:44.952Z,941.1
2017-11-03T11:23:53.177Z,941.1
2017-11-03T11:25:01.061Z,941.1
2017-11-03T11:26:09.152Z,941.1
2017-11-03T11:27:17.240Z,941.1
2017-11-03T11:28:25.325Z,941.1
2017-11-03T11:29:33.531Z,941.0
2017-11-03T11:30:41.499Z,941.0
2017-11-03T11:31:49.600Z,941.0
2017-11-03T11:32:57.729Z,941.0
2017-11-03T11:34:05.759Z,941.0
2017-11-03T11:35:13.901Z,941.0
2017-11-03T11:36:21.929Z,941.0
2017-11-03T11:37:30.017Z,940.9
2017-11-03T11:38:38.158Z,940.9
2017-11-03T11:39:46.244Z,941.0
2017-11-03T11:40:54.388Z,940.9
2017-11-03T11:42:02.500Z,940.9
2017-11-03T11:43:10.504Z,941.0
2017-11-03T11:44:18.591Z,940.9
2017-11-03T11:45:26.678Z,941.0
2017-11-03T11:46:34.820Z,940.9
2017-11-03T11:47:42.863Z,940.9
2017-11-03T11:48:50.953Z,940.9
2017-11-03T11:49:59.028Z,941.0
2017-11-03T11:51:07.119Z,940.9
2017-11-03T11:52:15.268Z,940.9
2017-11-03T11:53:23.285Z,940.9
2017-11-03T11:54:31.431Z,940.9
2017-11-03T11:55:39.460Z,940.9
2017-11-03T11:56:47.751Z,940.9
2017-11-03T11:57:55.703Z,940.8
2017-11-03T11:59:03.733Z,940.8
2017-11-03T12:00:11.822Z,940.8
2017-11-03T12:01:19.903Z,940.8
2017-11-03T12:02:27.991Z,940.8
2017-11-03T12:03:36.139Z,940.8
2017-11-03T12:04:44.164Z,940.8
2017-11-03T12:05:52.255Z,940.7
2017-11-03T12:07:00.348Z,940.7
2017-11-03T12:08:08.436Z,940.7
2017-11-03T12:09:16.581Z,940.7
2017-11-03T12:10:24.665Z,940.7
2017-11-03T12:11:32.696Z,940.7
2017-11-03T12:12:40.786Z,940.7
2017-11-03T12:13:48.867Z,940.7
2017-11-03T12:14:57.013Z,940.7
2017-11-03T12:16:05.043Z,940.7
2017-11-03T12:17:13.128Z,940.6
2017-11-03T12:18:21.214Z,940.7
2017-11-03T12:19:29.312Z,940.6
2017-11-03T12:20:37.454Z,940.6
2017-11-03T12:21:45.483Z,940.7
2017-11-03T12:22:53.572Z,940.6
2017-11-03T12:24:01.738Z,940.6
2017-11-03T12:25:09.744Z,940.6
2017-11-03T12:26:17.888Z,940.6
2017-11-03T12:27:25.918Z,940.6
2017-11-03T12:28:34.087Z,940.6
2017-11-03T12:29:42.092Z,940.6
2017-11-03T12:30:50.175Z,940.5
2017-11-03T12:31:58.319Z,940.5
2017-11-03T12:33:06.426Z,940.5
2017-11-03T12:34:14.435Z,940.5
2017-11-03T12:35:22.520Z,940.5
2017-11-03T12:36:30.607Z,940.5
2017-11-03T12:37:38.923Z,940.5
2017-11-03T12:38:46.781Z,940.5
2017-11-03T12:39:54.877Z,940.5
2017-11-03T12:41:02.966Z,940.5
2017-11-03T12:42:11.286Z,940.5
2017-11-03T12:43:19.197Z,940.4
2017-11-03T12:44:27.239Z,940.4
2017-11-03T12:45:35.323Z,940.4
2017-11-03T12:46:43.573Z,940.4
2017-11-03T12:47:51.499Z,940.4
2017-11-03T12:48:59.706Z,940.4
2017-11-03T12:50:07.668Z,940.4
2017-11-03T12:51:15.816Z,940.4
2017-11-03T12:52:23.849Z,940.4
2017-11-03T12:53:31.930Z,940.4
2017-11-03T12:54:40.075Z,940.4
2017-11-03T12:55:48.102Z,940.3
2017-11-03T12:56:56.195Z,940.3
2017-11-03T12:58:04.337Z,940.3
2017-11-03T12:59:12.375Z,940.3
2017-11-03T13:00:20.906Z,940.2
2017-11-03T13:01:28.744Z,940.3
2017-11-03T13:02:36.829Z,940.2
2017-11-03T13:03:44.928Z,940.2
2017-11-03T13:04:53.008Z,940.3
2017-11-03T13:06:01.154Z,940.3
2017-11-03T13:07:09.193Z,940.3
2017-11-03T13:08:17.267Z,940.2
2017-11-03T13:09:25.508Z,940.2
2017-11-03T13:10:33.441Z,940.2
2017-11-03T13:11:41.581Z,940.2
2017-11-03T13:12:49.613Z,940.2
2017-11-03T13:13:57.831Z,940.2
2017-11-03T13:15:05.783Z,940.1
2017-11-03T13:16:13.871Z,940.1
2017-11-03T13:17:22.012Z,940.1
2017-11-03T13:18:30.206Z,940.1
2017-11-03T13:19:38.127Z,940.1
2017-11-03T13:20:46.212Z,940.1
2017-11-03T13:21:54.301Z,940.1
2017-11-03T13:23:02.522Z,940.1
2017-11-03T13:24:10.475Z,940.1
2017-11-03T13:25:18.561Z,940.1
2017-11-03T13:26:26.647Z,940.1
2017-11-03T13:27:34.742Z,940.1
2017-11-03T13:28:42.874Z,940.1
2017-11-03T13:29:50.960Z,940.1
2017-11-03T13:30:58.997Z,940.1
2017-11-03T13:32:07.203Z,940.0
2017-11-03T13:33:15.221Z,940.0
2017-11-03T13:34:23.317Z,940.0
2017-11-03T13:35:31.340Z,940.0
2017-11-03T13:36:39.428Z,940.0
2017-11-03T13:37:47.513Z,940.0
2017-11-03T13:38:55.598Z,940.0
2017-11-03T13:40:03.805Z,940.0
2017-11-03T13:41:11.772Z,940.0
2017-11-03T13:42:19.856Z,940.0
2017-11-03T13:43:27.947Z,940.0
2017-11-03T13:44:36.033Z,940.0
2017-11-03T13:45:44.178Z,940.0
2017-11-03T13:46:52.253Z,940.0
2017-11-03T13:48:00.309Z,940.0
2017-11-03T13:49:08.389Z,940.0
2017-11-03T13:50:16.486Z,940.0
2017-11-03T13:51:24.717Z,940.0
2017-11-03T13:52:32.656Z,940.0
2017-11-03T13:53:40.745Z,940.0
2017-11-03T13:54:48.828Z,940.0
2017-11-03T13:55:56.922Z,940.0
2017-11-03T13:57:05.058Z,940.0
2017-11-03T13:58:13.085Z,939.9
2017-11-03T13:59:21.173Z,940.0
2017-11-03T14:00:29.259Z,940.0
2017-11-03T14:01:37.399Z,939.9
2017-11-03T14:02:45.552Z,939.9
2017-11-03T14:03:53.514Z,939.9
2017-11-03T14:05:01.597Z,939.9
2017-11-03T14:06:09.685Z,939.9
2017-11-03T14:07:17.772Z,939.9
2017-11-03T14:08:25.918Z,939.9
2017-11-03T14:09:33.947Z,939.9
2017-11-03T14:10:42.040Z,939.9
2017-11-03T14:11:50.128Z,939.9
2017-11-03T14:12:58.216Z,939.9
2017-11-03T14:14:06.359Z,939.9
2017-11-03T14:15:14.388Z,939.9
2017-11-03T14:16:22.474Z,939.9
2017-11-03T14:17:30.678Z,939.9
2017-11-03T14:18:38.759Z,939.9
2017-11-03T14:19:46.792Z,939.9
2017-11-03T14:20:54.820Z,939.9
2017-11-03T14:22:02.904Z,939.9
2017-11-03T14:23:10.988Z,939.9
2017-11-03T14:24:19.073Z,939.9
2017-11-03T14:25:27.215Z,939.8
2017-11-03T14:26:35.244Z,939.8
2017-11-03T14:27:43.334Z,939.8
2017-11-03T14:28:51.418Z,939.8
2017-11-03T14:29:59.502Z,939.9
2017-11-03T14:31:07.645Z,939.8
2017-11-03T14:32:15.674Z,939.8
2017-11-03T14:33:23.820Z,939.8
2017-11-03T14:34:31.855Z,939.8
2017-11-03T14:35:39.938Z,939.8
2017-11-03T14:36:48.081Z,939.9